Time;durP1;ratioP1;P1;durP2;ratioP2;P2;SDS_P1;SDS_P2;PMS_P1;PMS_P2;Temp;Humidity;BMP_temperature;BMP_pressure;BME280_temperature;BME280_humidity;BME280_pressure;Samples;Min_cycle;Max_cycle;Signal;HPM_P1;HPM_P2
2023/10/18 00:04:25;;;;;;;;;;;6.00;99.90;;;;;;12576721;28;19929;-40
2023/10/18 00:10:30;;;;;;;;;;;5.70;99.90;;;;;;12576844;28;19933;-39
2023/10/18 00:16:32;;;;;;;;;;;5.60;99.90;;;;;;12598052;28;19932;-39
2023/10/18 00:22:34;;;;;;;;;;;5.70;99.90;;;;;;12602655;28;20318;-38
2023/10/18 00:28:36;;;;;;;;;;;5.60;99.90;;;;;;12602475;28;20007;-38
2023/10/18 00:34:38;;;;;;;;;;;5.10;99.90;;;;;;12609396;28;20014;-38
2023/10/18 00:40:40;;;;;;;;;;;4.80;99.90;;;;;;12604066;28;19928;-38
2023/10/18 00:46:42;;;;;;;;;;;4.50;99.90;;;;;;12597255;28;19967;-38
2023/10/18 00:52:44;;;;;;;;;;;4.60;99.90;;;;;;12615030;28;20019;-38
2023/10/18 00:58:47;;;;;;;;;;;4.60;99.90;;;;;;12626730;28;19928;-39
2023/10/18 01:04:52;;;;;;;;;;;4.70;99.90;;;;;;12612990;28;20581;-38
2023/10/18 01:10:54;;;;;;;;;;;4.50;99.90;;;;;;12623929;28;19928;-38
2023/10/18 01:16:56;;;;;;;;;;;5.00;99.90;;;;;;12618278;28;19924;-39
2023/10/18 01:22:58;;;;;;;;;;;5.50;99.90;;;;;;12622007;28;19935;-39
2023/10/18 01:29:03;;;;;;;;;;;5.70;99.90;;;;;;12624691;28;19977;-38
2023/10/18 01:35:05;;;;;;;;;;;5.90;99.90;;;;;;12625457;28;19928;-38
2023/10/18 01:41:25;;;;;;;;;;;5.90;99.90;;;;;;12624750;28;19967;-38
2023/10/18 01:47:27;;;;;;;;;;;5.90;99.90;;;;;;12587858;28;19954;-39
2023/10/18 01:53:42;;;;;;;;;;;6.00;99.90;;;;;;12602755;28;19932;-38
2023/10/18 01:59:46;;;;;;;;;;;6.00;99.90;;;;;;12603612;28;20348;-38
2023/10/18 02:05:48;;;;;;;;;;;5.90;99.90;;;;;;12622015;28;20786;-39
2023/10/18 02:11:49;;;;;;;;;;;5.70;99.90;;;;;;12622989;28;19975;-38
2023/10/18 02:17:51;;;;;;;;;;;5.50;99.90;;;;;;12610174;28;20367;-39
2023/10/18 02:23:53;;;;;;;;;;;5.60;99.90;;;;;;12618232;28;20022;-39
2023/10/18 02:29:55;;;;;;;;;;;5.50;99.90;;;;;;12595084;28;19931;-38
2023/10/18 02:35:57;;;;;;;;;;;5.50;99.90;;;;;;12521100;28;20343;-38
2023/10/18 02:41:59;;;;;;;;;;;5.30;99.90;;;;;;12591468;28;19939;-38
2023/10/18 02:48:01;;;;;;;;;;;5.40;99.90;;;;;;12606891;28;19931;-39
2023/10/18 03:00:20;;;;;;;;;;;5.40;99.90;;;;;;12595368;28;20462;-39
2023/10/18 03:06:24;;;;;;;;;;;5.40;99.90;;;;;;12611804;28;20017;-38
2023/10/18 03:12:28;;;;;;;;;;;5.60;99.90;;;;;;12622353;28;20384;-38
2023/10/18 03:18:31;;;;;;;;;;;5.50;99.90;;;;;;12552464;28;19937;-38
2023/10/18 03:24:36;;;;;;;;;;;5.50;99.90;;;;;;12542977;28;20020;-38
2023/10/18 03:30:47;;;;;;;;;;;5.70;99.90;;;;;;12565409;28;20439;-39
2023/10/18 03:36:49;;;;;;;;;;;5.80;99.90;;;;;;12531982;28;19981;-38
2023/10/18 03:42:52;;;;;;;;;;;5.70;99.90;;;;;;12566569;28;20023;-39
2023/10/18 03:48:54;;;;;;;;;;;5.70;99.90;;;;;;12551986;28;20458;-38
2023/10/18 04:01:01;;;;;;;;;;;5.70;99.90;;;;;;12556931;28;19931;-38
2023/10/18 04:07:12;;;;;;;;;;;5.80;99.90;;;;;;12551084;28;20320;-40
2023/10/18 04:13:14;;;;;;;;;;;5.00;99.90;;;;;;12569625;28;19928;-39
2023/10/18 04:19:19;;;;;;;;;;;4.80;99.90;;;;;;12611772;28;19928;-38
2023/10/18 04:25:32;;;;;;;;;;;4.70;99.90;;;;;;12596067;28;19935;-40
2023/10/18 04:31:34;;;;;;;;;;;4.70;99.90;;;;;;12602948;28;20296;-38
2023/10/18 04:37:36;;;;;;;;;;;4.60;99.90;;;;;;12608340;28;20058;-39
2023/10/18 04:43:37;;;;;;;;;;;4.70;99.90;;;;;;12611461;28;19976;-39
2023/10/18 04:49:39;;;;;;;;;;;4.80;99.90;;;;;;12597948;28;20399;-39
2023/10/18 04:55:41;;;;;;;;;;;4.80;99.90;;;;;;12612359;28;20206;-38
2023/10/18 05:07:54;;;;;;;;;;;5.10;99.90;;;;;;12608223;28;19928;-38
2023/10/18 05:13:56;;;;;;;;;;;5.60;99.90;;;;;;12601338;28;20521;-39
2023/10/18 05:20:07;;;;;;;;;;;5.80;99.90;;;;;;12605963;28;19928;-38
2023/10/18 05:26:17;;;;;;;;;;;5.90;99.90;;;;;;12602417;28;19928;-38
2023/10/18 05:38:52;;;;;;;;;;;5.70;99.90;;;;;;12615058;28;20425;-38
2023/10/18 05:44:54;;;;;;;;;;;5.90;99.90;;;;;;12621674;28;19971;-38
2023/10/18 05:57:27;;;;;;;;;;;5.10;99.90;;;;;;12603065;28;20382;-38
2023/10/18 06:03:41;;;;;;;;;;;4.60;99.90;;;;;;12585635;28;19924;-39
2023/10/18 06:09:58;;;;;;;;;;;4.70;99.90;;;;;;12615704;28;19927;-38
2023/10/18 06:16:17;;;;;;;;;;;4.80;99.90;;;;;;12606472;28;19972;-38
2023/10/18 06:22:29;;;;;;;;;;;5.00;99.90;;;;;;12588139;28;19928;-38
2023/10/18 06:28:31;;;;;;;;;;;5.10;99.90;;;;;;12569746;28;19984;-38
2023/10/18 06:34:33;;;;;;;;;;;5.20;99.90;;;;;;12607535;28;19928;-38
2023/10/18 06:40:50;;;;;;;;;;;5.30;99.90;;;;;;12617364;28;21257;-38
2023/10/18 06:47:06;;;;;;;;;;;5.20;99.90;;;;;;12614127;28;19958;-39
2023/10/18 06:53:11;;;;;;;;;;;5.40;99.90;;;;;;12605426;28;19928;-38
2023/10/18 06:59:13;;;;;;;;;;;5.40;99.90;;;;;;12610231;28;19928;-38
2023/10/18 07:05:16;;;;;;;;;;;5.50;99.90;;;;;;12591960;28;19932;-39
2023/10/18 07:11:18;;;;;;;;;;;5.50;99.90;;;;;;12611317;28;19928;-39
2023/10/18 07:17:27;;;;;;;;;;;5.60;99.90;;;;;;12612971;28;19928;-38
2023/10/18 07:23:28;;;;;;;;;;;5.90;99.90;;;;;;12602113;28;19940;-39
2023/10/18 07:29:31;;;;;;;;;;;6.20;99.90;;;;;;12604397;28;19932;-40
2023/10/18 07:35:34;;;;;;;;;;;6.00;99.90;;;;;;12617530;28;19924;-39
2023/10/18 07:41:36;;;;;;;;;;;6.00;99.90;;;;;;12608644;28;20420;-39
2023/10/18 07:47:38;;;;;;;;;;;5.90;99.90;;;;;;12613597;28;20026;-40
2023/10/18 07:53:40;;;;;;;;;;;5.90;99.90;;;;;;12610454;28;19927;-38
2023/10/18 07:59:45;;;;;;;;;;;6.00;99.90;;;;;;12613545;28;20380;-38
2023/10/18 08:05:50;;;;;;;;;;;6.00;99.90;;;;;;12608140;28;19982;-39
2023/10/18 08:11:52;;;;;;;;;;;6.10;99.90;;;;;;12614070;28;19928;-38
2023/10/18 08:17:59;;;;;;;;;;;6.30;99.90;;;;;;12572590;28;19928;-39
2023/10/18 08:24:08;;;;;;;;;;;6.40;99.90;;;;;;12594027;28;20368;-39
2023/10/18 08:30:22;;;;;;;;;;;6.80;99.90;;;;;;12597804;28;19924;-38
2023/10/18 08:36:30;;;;;;;;;;;7.10;99.90;;;;;;12587289;28;19929;-38
2023/10/18 08:42:33;;;;;;;;;;;7.30;99.90;;;;;;12593942;28;19928;-39
2023/10/18 08:48:38;;;;;;;;;;;7.40;99.90;;;;;;12590543;28;19935;-39
2023/10/18 08:54:41;;;;;;;;;;;7.50;99.90;;;;;;12580786;28;19928;-39
2023/10/18 09:06:57;;;;;;;;;;;7.70;99.90;;;;;;12587196;28;20019;-37
2023/10/18 09:13:29;;;;;;;;;;;7.70;99.90;;;;;;12575689;28;20538;-37
2023/10/18 09:19:38;;;;;;;;;;;7.30;99.90;;;;;;12554773;28;19942;-37
2023/10/18 09:25:49;;;;;;;;;;;7.30;99.90;;;;;;12560745;28;20023;-36
2023/10/18 09:32:02;;;;;;;;;;;7.50;99.90;;;;;;12548079;28;19972;-39
2023/10/18 09:38:07;;;;;;;;;;;8.00;99.90;;;;;;12550403;28;19953;-37
2023/10/18 09:44:12;;;;;;;;;;;8.30;99.90;;;;;;12561583;28;20454;-37
2023/10/18 09:50:23;;;;;;;;;;;8.50;99.90;;;;;;12552791;28;19974;-39
2023/10/18 09:56:35;;;;;;;;;;;8.70;99.90;;;;;;12526276;28;19974;-39
2023/10/18 10:02:37;;;;;;;;;;;8.80;99.90;;;;;;12553919;28;20490;-39
2023/10/18 10:08:41;;;;;;;;;;;8.90;99.90;;;;;;12541026;28;19924;-40
2023/10/18 10:14:45;;;;;;;;;;;9.00;99.90;;;;;;12559062;28;19928;-39
2023/10/18 10:20:47;;;;;;;;;;;9.10;99.90;;;;;;12531868;28;19955;-39
2023/10/18 10:26:49;;;;;;;;;;;9.30;99.90;;;;;;12548426;28;20508;-39
2023/10/18 10:32:54;;;;;;;;;;;9.30;99.90;;;;;;12542194;28;19933;-39
2023/10/18 10:39:00;;;;;;;;;;;9.50;99.90;;;;;;12551839;28;20320;-39
2023/10/18 10:45:23;;;;;;;;;;;9.50;99.90;;;;;;12544632;28;20011;-39
2023/10/18 10:51:25;;;;;;;;;;;9.60;99.90;;;;;;12552993;28;19929;-40
2023/10/18 10:57:32;;;;;;;;;;;9.80;99.90;;;;;;12551973;28;19932;-39
2023/10/18 11:03:54;;;;;;;;;;;10.00;99.90;;;;;;12528264;28;19934;-39
2023/10/18 11:09:59;;;;;;;;;;;10.00;99.90;;;;;;12553277;28;20434;-40
2023/10/18 11:16:04;;;;;;;;;;;10.30;99.90;;;;;;12549013;28;20418;-40
2023/10/18 11:22:07;;;;;;;;;;;10.40;99.90;;;;;;12538931;28;19928;-38
2023/10/18 11:28:28;;;;;;;;;;;10.70;99.90;;;;;;12512233;28;19931;-39
2023/10/18 11:34:30;;;;;;;;;;;10.70;96.90;;;;;;12541062;28;20370;-39
2023/10/18 11:40:32;;;;;;;;;;;11.00;99.90;;;;;;12547657;28;19987;-39
2023/10/18 11:46:46;;;;;;;;;;;11.20;79.60;;;;;;12539946;28;19932;-40
2023/10/18 11:52:49;;;;;;;;;;;11.20;99.90;;;;;;12535062;28;20404;-39
2023/10/18 11:58:58;;;;;;;;;;;11.20;41.20;;;;;;12530658;28;20175;-40
2023/10/18 12:05:05;;;;;;;;;;;11.30;56.10;;;;;;12519954;28;19960;-39
2023/10/18 12:11:11;;;;;;;;;;;11.00;82.40;;;;;;12529267;28;19974;-39
2023/10/18 12:17:13;;;;;;;;;;;10.90;77.00;;;;;;12528421;28;20385;-40
2023/10/18 12:23:21;;;;;;;;;;;11.00;99.90;;;;;;12532563;28;20382;-40
2023/10/18 12:29:28;;;;;;;;;;;11.20;99.00;;;;;;12533419;28;19932;-39
2023/10/18 12:35:31;;;;;;;;;;;11.20;90.60;;;;;;12546333;28;19929;-41
2023/10/18 12:41:33;;;;;;;;;;;11.30;61.20;;;;;;12550833;28;19947;-39
2023/10/18 12:47:34;;;;;;;;;;;11.40;59.50;;;;;;12542952;28;19933;-40
2023/10/18 12:53:38;;;;;;;;;;;11.40;1.00;;;;;;12547134;28;20300;-39
2023/10/18 12:59:59;;;;;;;;;;;11.30;84.80;;;;;;12555110;28;19928;-39
2023/10/18 13:06:01;;;;;;;;;;;11.20;1.00;;;;;;12529833;28;20415;-39
2023/10/18 13:12:07;;;;;;;;;;;11.00;34.60;;;;;;12546555;28;19932;-39
2023/10/18 13:18:11;;;;;;;;;;;10.80;1.00;;;;;;12613402;28;20455;-40
2023/10/18 13:24:17;;;;;;;;;;;10.80;27.00;;;;;;12593926;28;19932;-40
2023/10/18 13:36:50;;;;;;;;;;;10.50;99.90;;;;;;12588781;28;20032;-40
2023/10/18 13:42:54;;;;;;;;;;;10.50;99.90;;;;;;12609133;28;19954;-39
2023/10/18 13:48:56;;;;;;;;;;;10.50;99.90;;;;;;12596219;28;19942;-38
2023/10/18 13:54:58;;;;;;;;;;;10.50;90.80;;;;;;12620724;28;20019;-38
2023/10/18 14:01:01;;;;;;;;;;;10.40;92.70;;;;;;12613400;28;19928;-39
2023/10/18 14:07:05;;;;;;;;;;;10.40;93.20;;;;;;12623513;28;20441;-39
2023/10/18 14:13:07;;;;;;;;;;;10.50;39.80;;;;;;12621931;28;20131;-39
2023/10/18 14:19:11;;;;;;;;;;;10.50;56.60;;;;;;12603884;28;19928;-39
2023/10/18 14:25:13;;;;;;;;;;;10.50;36.50;;;;;;12596742;28;20377;-38
2023/10/18 14:31:15;;;;;;;;;;;10.40;23.10;;;;;;12599423;28;19924;-39
2023/10/18 14:37:22;;;;;;;;;;;10.30;49.10;;;;;;12615460;28;19987;-39
2023/10/18 14:43:23;;;;;;;;;;;10.20;70.80;;;;;;12614303;28;19932;-38
2023/10/18 14:49:25;;;;;;;;;;;10.10;86.90;;;;;;12614693;28;19980;-40
2023/10/18 14:55:28;;;;;;;;;;;10.10;90.00;;;;;;12616131;28;19934;-38
2023/10/18 15:01:31;;;;;;;;;;;10.00;86.60;;;;;;12615924;28;20022;-39
2023/10/18 15:07:33;;;;;;;;;;;9.90;99.90;;;;;;12585257;28;20033;-39
2023/10/18 15:13:37;;;;;;;;;;;9.80;99.90;;;;;;12594874;28;20447;-39
2023/10/18 15:19:39;;;;;;;;;;;9.70;99.90;;;;;;12606743;28;20758;-38
2023/10/18 15:25:42;;;;;;;;;;;9.70;99.90;;;;;;12598976;28;19975;-39
2023/10/18 15:31:44;;;;;;;;;;;9.60;99.90;;;;;;12595511;28;19932;-39
2023/10/18 15:37:46;;;;;;;;;;;9.50;99.90;;;;;;12612263;28;20018;-39
2023/10/18 15:43:52;;;;;;;;;;;9.50;99.90;;;;;;12587641;28;20322;-38
2023/10/18 15:49:54;;;;;;;;;;;9.50;99.90;;;;;;12585915;28;20533;-38
2023/10/18 15:55:55;;;;;;;;;;;9.40;99.90;;;;;;12603723;28;20023;-38
2023/10/18 16:01:58;;;;;;;;;;;9.30;99.90;;;;;;12615893;28;19931;-39
2023/10/18 16:08:00;;;;;;;;;;;9.20;99.90;;;;;;12608167;28;19928;-40
2023/10/18 16:14:03;;;;;;;;;;;9.30;99.90;;;;;;12610394;28;20388;-39
2023/10/18 16:20:05;;;;;;;;;;;9.10;99.90;;;;;;12597456;28;20375;-39
2023/10/18 16:26:09;;;;;;;;;;;9.00;99.90;;;;;;12602924;28;19939;-39
2023/10/18 16:32:11;;;;;;;;;;;9.00;99.90;;;;;;12605515;28;19924;-39
2023/10/18 16:38:13;;;;;;;;;;;9.00;99.90;;;;;;12602592;28;20355;-39
2023/10/18 16:44:17;;;;;;;;;;;8.90;99.90;;;;;;12583218;28;20323;-39
2023/10/18 16:50:22;;;;;;;;;;;8.80;99.90;;;;;;12611930;28;20026;-39
2023/10/18 16:56:25;;;;;;;;;;;8.80;99.90;;;;;;12616583;28;20014;-39
2023/10/18 17:02:28;;;;;;;;;;;8.80;99.90;;;;;;12586122;28;19924;-39
2023/10/18 17:08:33;;;;;;;;;;;8.70;99.90;;;;;;12583035;28;20470;-39
2023/10/18 17:14:35;;;;;;;;;;;8.70;99.90;;;;;;12601054;28;19985;-39
2023/10/18 17:20:37;;;;;;;;;;;8.60;99.90;;;;;;12601718;28;20412;-40
2023/10/18 17:26:39;;;;;;;;;;;8.50;99.90;;;;;;12609250;28;19928;-38
2023/10/18 17:32:42;;;;;;;;;;;8.40;99.90;;;;;;12595506;28;19939;-38
2023/10/18 17:38:44;;;;;;;;;;;8.50;99.90;;;;;;12608530;28;20030;-39
2023/10/18 17:44:48;;;;;;;;;;;8.40;99.90;;;;;;12615776;28;19928;-38
2023/10/18 17:50:49;;;;;;;;;;;8.30;99.90;;;;;;12608095;28;20427;-39
2023/10/18 17:56:51;;;;;;;;;;;8.20;99.90;;;;;;12623074;28;19932;-38
2023/10/18 18:02:57;;;;;;;;;;;8.20;99.90;;;;;;12605652;28;19928;-39
2023/10/18 18:08:59;;;;;;;;;;;8.20;99.90;;;;;;12608861;28;19947;-38
2023/10/18 18:15:05;;;;;;;;;;;8.10;99.90;;;;;;12610847;28;19936;-38
2023/10/18 18:21:07;;;;;;;;;;;8.10;99.90;;;;;;12612305;28;20649;-39
2023/10/18 18:27:09;;;;;;;;;;;8.00;99.90;;;;;;12600696;28;20007;-39
2023/10/18 18:33:11;;;;;;;;;;;7.90;99.90;;;;;;12613872;28;19946;-38
2023/10/18 18:39:13;;;;;;;;;;;7.90;99.90;;;;;;12618392;28;19935;-39
2023/10/18 18:45:18;;;;;;;;;;;7.90;99.90;;;;;;12599798;28;19959;-38
2023/10/18 18:51:20;;;;;;;;;;;8.10;99.90;;;;;;12582347;28;19932;-38
2023/10/18 18:57:22;;;;;;;;;;;8.00;99.90;;;;;;12603493;28;19986;-39
2023/10/18 19:03:23;;;;;;;;;;;7.90;99.90;;;;;;12614883;28;19928;-38
2023/10/18 19:09:25;;;;;;;;;;;8.00;99.90;;;;;;12603157;28;20300;-39
2023/10/18 19:15:27;;;;;;;;;;;8.00;99.90;;;;;;12560550;28;20493;-38
2023/10/18 19:21:30;;;;;;;;;;;8.10;99.90;;;;;;12538525;28;19946;-38
2023/10/18 19:27:33;;;;;;;;;;;8.20;99.90;;;;;;12550179;28;19933;-38
2023/10/18 19:33:38;;;;;;;;;;;8.20;99.90;;;;;;12543453;28;20031;-39
2023/10/18 19:39:41;;;;;;;;;;;8.30;99.90;;;;;;12543870;28;20066;-38
2023/10/18 19:45:43;;;;;;;;;;;8.40;99.90;;;;;;12549467;28;19974;-39
2023/10/18 19:51:44;;;;;;;;;;;8.50;99.90;;;;;;12533721;28;20263;-39
2023/10/18 19:57:46;;;;;;;;;;;8.50;99.90;;;;;;12532754;28;19943;-38
2023/10/18 20:03:48;;;;;;;;;;;8.60;99.90;;;;;;12531005;28;19985;-38
2023/10/18 20:09:49;;;;;;;;;;;8.70;99.90;;;;;;12524874;28;19955;-38
2023/10/18 20:15:51;;;;;;;;;;;8.70;99.90;;;;;;12549547;28;19932;-38
2023/10/18 20:21:55;;;;;;;;;;;8.70;99.90;;;;;;12518011;28;20364;-38
2023/10/18 20:27:57;;;;;;;;;;;8.90;99.90;;;;;;12542328;28;19935;-38
2023/10/18 20:33:59;;;;;;;;;;;8.90;99.90;;;;;;12531809;28;20279;-39
2023/10/18 20:40:00;;;;;;;;;;;9.00;99.90;;;;;;12532028;28;19928;-38
2023/10/18 20:46:17;;;;;;;;;;;9.10;99.90;;;;;;12537548;28;19992;-39
2023/10/18 20:52:19;;;;;;;;;;;9.00;99.90;;;;;;12514086;28;19999;-39
2023/10/18 20:58:22;;;;;;;;;;;9.10;99.90;;;;;;12551396;28;20329;-38
2023/10/18 21:04:24;;;;;;;;;;;9.20;99.90;;;;;;12518128;28;19928;-39
2023/10/18 21:10:32;;;;;;;;;;;9.20;99.90;;;;;;12539947;28;20315;-39
2023/10/18 21:16:34;;;;;;;;;;;9.20;99.90;;;;;;12597539;28;21214;-39
2023/10/18 21:22:36;;;;;;;;;;;9.40;99.90;;;;;;12570449;28;19932;-39
2023/10/18 21:28:39;;;;;;;;;;;9.40;99.90;;;;;;12615068;28;20586;-39
2023/10/18 21:34:42;;;;;;;;;;;9.40;99.90;;;;;;12597159;28;19985;-38
2023/10/18 21:40:45;;;;;;;;;;;9.40;99.90;;;;;;12594804;28;19935;-38
2023/10/18 21:46:47;;;;;;;;;;;9.30;99.90;;;;;;12624625;28;20374;-40
2023/10/18 21:52:49;;;;;;;;;;;9.30;99.90;;;;;;12617141;28;21959;-39
2023/10/18 21:58:51;;;;;;;;;;;9.50;99.90;;;;;;12618118;28;20054;-38
2023/10/18 22:04:53;;;;;;;;;;;9.50;99.90;;;;;;12598373;28;20368;-40
2023/10/18 22:10:55;;;;;;;;;;;9.50;99.90;;;;;;12608622;28;19960;-38
2023/10/18 22:16:57;;;;;;;;;;;9.50;99.90;;;;;;12601327;28;19972;-38
2023/10/18 22:23:01;;;;;;;;;;;9.30;99.90;;;;;;12608759;28;20348;-39
2023/10/18 22:29:04;;;;;;;;;;;9.20;99.90;;;;;;12614767;28;19928;-38
2023/10/18 22:35:06;;;;;;;;;;;9.10;99.90;;;;;;12610654;28;20060;-38
2023/10/18 22:41:12;;;;;;;;;;;9.20;99.90;;;;;;12595657;28;19950;-40
2023/10/18 22:47:19;;;;;;;;;;;9.00;99.90;;;;;;12611384;28;19928;-39
2023/10/18 22:53:30;;;;;;;;;;;8.90;99.90;;;;;;12606429;28;19986;-39
2023/10/18 22:59:36;;;;;;;;;;;8.80;99.90;;;;;;12601570;28;20337;-39
2023/10/18 23:05:40;;;;;;;;;;;8.80;99.90;;;;;;12608989;28;20233;-39
2023/10/18 23:11:56;;;;;;;;;;;8.80;99.90;;;;;;12611364;28;20005;-39
2023/10/18 23:18:04;;;;;;;;;;;8.80;99.90;;;;;;12603283;28;20303;-39
2023/10/18 23:24:11;;;;;;;;;;;8.90;99.90;;;;;;12584898;28;20295;-40
2023/10/18 23:30:30;;;;;;;;;;;9.00;99.90;;;;;;12600102;28;20006;-39
2023/10/18 23:36:36;;;;;;;;;;;8.90;99.90;;;;;;12596961;28;20026;-38
2023/10/18 23:42:50;;;;;;;;;;;8.80;99.90;;;;;;12602922;28;20007;-39
2023/10/18 23:54:55;;;;;;;;;;;8.70;99.90;;;;;;12613840;28;20380;-39
